createdAt,value
2022-10-28T00:00:17.712Z,48.98
2022-10-28T00:01:17.803Z,48.50
2022-10-28T00:02:17.733Z,55.27
2022-10-28T00:03:17.684Z,54.30
2022-10-28T00:04:17.763Z,54.14
2022-10-28T00:05:17.665Z,54.30
2022-10-28T00:06:17.660Z,50.27
2022-10-28T00:07:17.652Z,55.11
2022-10-28T00:08:17.648Z,52.53
2022-10-28T00:09:17.669Z,46.57
2022-10-28T00:10:17.629Z,52.37
2022-10-28T00:11:17.623Z,46.89
2022-10-28T00:12:17.625Z,44.96
2022-10-28T00:13:17.615Z,45.76
2022-10-28T00:14:17.618Z,42.38
2022-10-28T00:15:17.588Z,50.27
2022-10-28T00:16:17.578Z,45.12
2022-10-28T00:17:17.625Z,44.63
2022-10-28T00:18:17.561Z,47.86
2022-10-28T00:19:17.582Z,45.44
2022-10-28T00:20:17.546Z,44.79
2022-10-28T00:21:17.532Z,46.41
2022-10-28T00:22:17.524Z,45.76
2022-10-28T00:23:17.517Z,45.44
2022-10-28T00:24:17.534Z,44.79
2022-10-28T00:25:17.499Z,47.86
2022-10-28T00:26:17.488Z,48.50
2022-10-28T00:27:17.480Z,47.86
2022-10-28T00:28:18.469Z,48.02
2022-10-28T00:29:17.488Z,47.37
2022-10-28T00:30:17.531Z,50.27
2022-10-28T00:31:17.446Z,57.20
2022-10-28T00:32:17.438Z,48.02
2022-10-28T00:33:17.427Z,49.31
2022-10-28T00:34:17.442Z,46.08
2022-10-28T00:35:17.410Z,46.73
2022-10-28T00:36:17.407Z,53.17
2022-10-28T00:37:17.404Z,49.95
2022-10-28T00:38:17.374Z,55.27
2022-10-28T00:39:18.413Z,45.92
2022-10-28T00:40:17.365Z,54.95
2022-10-28T00:41:17.362Z,53.01
2022-10-28T00:42:17.357Z,49.63
2022-10-28T00:43:17.426Z,44.63
2022-10-28T00:44:17.363Z,45.12
2022-10-28T00:45:17.312Z,47.70
2022-10-28T00:46:18.317Z,46.08
2022-10-28T00:47:17.305Z,43.02
2022-10-28T00:48:17.297Z,43.83
2022-10-28T00:49:17.319Z,46.41
2022-10-28T00:50:17.287Z,45.76
2022-10-28T00:51:17.271Z,46.73
2022-10-28T00:52:17.265Z,42.06
2022-10-28T00:53:17.257Z,43.83
2022-10-28T00:54:17.283Z,48.50
2022-10-28T00:55:17.243Z,44.96
2022-10-28T00:56:17.271Z,42.54
2022-10-28T00:57:17.229Z,40.28
2022-10-28T00:58:17.218Z,42.86
2022-10-28T00:59:17.236Z,47.86
2022-10-28T01:00:17.195Z,49.63
2022-10-28T01:01:17.214Z,44.79
2022-10-28T01:02:17.313Z,39.48
2022-10-28T01:03:17.166Z,39.32
2022-10-28T01:04:17.193Z,48.50
2022-10-28T01:05:17.157Z,47.37
2022-10-28T01:06:17.141Z,50.60
2022-10-28T01:07:17.140Z,43.34
2022-10-28T01:08:17.133Z,46.57
2022-10-28T01:09:17.176Z,41.41
2022-10-28T01:10:17.114Z,41.57
2022-10-28T01:11:17.112Z,46.08
2022-10-28T01:12:17.092Z,48.66
2022-10-28T01:13:17.087Z,38.67
2022-10-28T01:14:17.110Z,39.16
2022-10-28T01:15:17.074Z,38.51
2022-10-28T01:16:17.061Z,40.61
2022-10-28T01:17:17.058Z,40.61
2022-10-28T01:18:17.044Z,48.50
2022-10-28T01:19:17.068Z,48.82
2022-10-28T01:20:17.032Z,47.37
2022-10-28T01:21:17.027Z,45.12
2022-10-28T01:22:17.076Z,46.41
2022-10-28T01:23:17.006Z,43.83
2022-10-28T01:24:17.026Z,40.44
2022-10-28T01:25:16.984Z,39.32
2022-10-28T01:26:16.975Z,56.72
2022-10-28T01:27:16.973Z,45.44
2022-10-28T01:28:16.964Z,45.76
2022-10-28T01:29:16.977Z,43.83
2022-10-28T01:30:16.950Z,47.86
2022-10-28T01:31:16.931Z,48.50
2022-10-28T01:32:16.928Z,44.79
2022-10-28T01:33:16.921Z,45.44
2022-10-28T01:34:16.937Z,41.25
2022-10-28T01:35:16.975Z,38.35
2022-10-28T01:36:16.891Z,39.16
2022-10-28T01:37:16.879Z,43.99
2022-10-28T01:38:16.877Z,42.70
2022-10-28T01:39:16.893Z,47.05
2022-10-28T01:40:16.858Z,41.89
2022-10-28T01:41:16.851Z,43.02
2022-10-28T01:42:16.844Z,56.07
2022-10-28T01:43:16.832Z,47.70
2022-10-28T01:44:16.871Z,52.21
2022-10-28T01:45:16.821Z,47.53
2022-10-28T01:46:16.815Z,44.63
2022-10-28T01:47:16.804Z,43.67
2022-10-28T01:48:16.799Z,51.24
2022-10-28T01:49:16.827Z,48.98
2022-10-28T01:50:16.789Z,43.83
2022-10-28T01:51:16.766Z,38.03
2022-10-28T01:52:16.767Z,38.99
2022-10-28T01:53:16.757Z,42.38
2022-10-28T01:54:16.791Z,41.25
2022-10-28T01:55:16.741Z,49.79
2022-10-28T01:56:16.729Z,42.22
2022-10-28T01:57:16.722Z,40.44
2022-10-28T01:58:16.719Z,43.34
2022-10-28T01:59:16.704Z,43.02
2022-10-28T02:00:16.726Z,44.15
2022-10-28T02:01:16.768Z,42.06
2022-10-28T02:02:16.670Z,45.60
2022-10-28T02:03:16.672Z,46.73
2022-10-28T02:04:16.659Z,49.79
2022-10-28T02:05:16.679Z,48.82
2022-10-28T02:06:16.647Z,41.41
2022-10-28T02:07:16.634Z,38.99
2022-10-28T02:08:16.621Z,39.32
2022-10-28T02:09:16.618Z,44.63
2022-10-28T02:10:16.641Z,47.70
2022-10-28T02:11:16.602Z,43.83
2022-10-28T02:12:16.618Z,50.43
2022-10-28T02:13:16.579Z,48.50
2022-10-28T02:14:16.574Z,45.28
2022-10-28T02:15:16.608Z,39.16
2022-10-28T02:16:16.568Z,38.19
2022-10-28T02:17:16.580Z,45.76
2022-10-28T02:18:16.551Z,49.31
2022-10-28T02:19:16.542Z,45.60
2022-10-28T02:20:16.555Z,50.92
2022-10-28T02:21:16.514Z,47.53
2022-10-28T02:22:16.519Z,49.63
2022-10-28T02:23:16.502Z,43.51
2022-10-28T02:24:16.495Z,44.47
2022-10-28T02:25:16.520Z,49.63
2022-10-28T02:26:16.478Z,49.95
2022-10-28T02:27:16.469Z,43.99
2022-10-28T02:28:16.469Z,45.76
2022-10-28T02:29:16.451Z,54.30
2022-10-28T02:30:16.458Z,45.44
2022-10-28T02:31:17.435Z,45.92
2022-10-28T02:32:16.426Z,44.63
2022-10-28T02:33:16.432Z,41.41
2022-10-28T02:34:16.409Z,40.28
2022-10-28T02:35:16.424Z,52.53
2022-10-28T02:36:16.395Z,54.46
2022-10-28T02:37:16.380Z,50.60
2022-10-28T02:38:16.370Z,48.50
2022-10-28T02:39:16.364Z,47.05
2022-10-28T02:40:16.392Z,40.44
2022-10-28T02:41:16.343Z,40.44
2022-10-28T02:42:16.337Z,41.89
2022-10-28T02:43:16.337Z,49.47
2022-10-28T02:44:16.321Z,54.46
2022-10-28T02:45:16.343Z,56.72
2022-10-28T02:46:16.300Z,51.08
2022-10-28T02:47:16.293Z,43.51
2022-10-28T02:48:16.286Z,51.88
2022-10-28T02:49:16.277Z,45.60
2022-10-28T02:50:16.305Z,44.96
2022-10-28T02:51:16.255Z,57.20
2022-10-28T02:52:16.247Z,50.43
2022-10-28T02:53:16.283Z,49.79
2022-10-28T02:54:16.235Z,45.28
2022-10-28T02:55:16.226Z,46.57
2022-10-28T02:56:16.246Z,62.04
2022-10-28T02:57:16.199Z,47.05
2022-10-28T02:58:16.200Z,46.41
2022-10-28T02:59:16.190Z,49.47
2022-10-28T03:00:16.188Z,52.85
2022-10-28T03:01:16.324Z,52.05
2022-10-28T03:02:16.190Z,51.56
2022-10-28T03:03:16.155Z,53.66
2022-10-28T03:04:16.152Z,46.41
2022-10-28T03:05:16.136Z,60.59
2022-10-28T03:06:16.217Z,49.95
2022-10-28T03:07:16.121Z,49.15
2022-10-28T03:08:16.113Z,53.01
2022-10-28T03:09:16.108Z,51.40
2022-10-28T03:10:16.103Z,43.83
2022-10-28T03:11:16.114Z,50.76
2022-10-28T03:12:16.085Z,51.88
2022-10-28T03:13:16.081Z,48.02
2022-10-28T03:14:16.081Z,56.40
2022-10-28T03:15:16.063Z,59.78
2022-10-28T03:16:16.077Z,48.66
2022-10-28T03:17:16.135Z,52.53
2022-10-28T03:18:16.035Z,53.98
2022-10-28T03:19:16.027Z,52.05
2022-10-28T03:20:16.020Z,52.53
2022-10-28T03:21:16.034Z,57.52
2022-10-28T03:22:15.996Z,53.33
2022-10-28T03:23:15.992Z,60.26
2022-10-28T03:24:15.982Z,61.23
2022-10-28T03:25:15.975Z,54.46
2022-10-28T03:26:16.020Z,59.30
2022-10-28T03:27:15.961Z,54.79
2022-10-28T03:28:15.951Z,56.24
2022-10-28T03:29:15.943Z,48.82
2022-10-28T03:30:15.927Z,56.72
2022-10-28T03:31:16.962Z,59.46
2022-10-28T03:32:15.969Z,51.56
2022-10-28T03:33:16.906Z,59.78
2022-10-28T03:34:15.904Z,65.10
2022-10-28T03:35:15.886Z,53.50
2022-10-28T03:36:15.904Z,57.20
2022-10-28T03:37:16.873Z,64.13
2022-10-28T03:38:15.862Z,57.04
2022-10-28T03:39:15.852Z,55.59
2022-10-28T03:40:15.847Z,55.11
2022-10-28T03:41:15.869Z,57.36
2022-10-28T03:42:15.831Z,56.72
2022-10-28T03:43:15.825Z,59.62
2022-10-28T03:44:15.810Z,60.75
2022-10-28T03:45:15.797Z,61.23
2022-10-28T03:46:15.823Z,52.53
2022-10-28T03:47:15.781Z,55.43
2022-10-28T03:48:15.777Z,56.40
2022-10-28T03:49:15.773Z,52.85
2022-10-28T03:50:15.754Z,63.65
2022-10-28T03:51:15.776Z,48.02
2022-10-28T03:52:15.742Z,58.65
2022-10-28T03:53:15.728Z,50.43
2022-10-28T03:54:15.728Z,54.79
2022-10-28T03:55:15.718Z,50.60
2022-10-28T03:56:15.740Z,50.76
2022-10-28T03:57:15.705Z,64.13
2022-10-28T03:58:15.697Z,50.27
2022-10-28T03:59:19.265Z,47.53
2022-10-28T04:00:15.678Z,60.75
2022-10-28T04:01:15.791Z,57.69
2022-10-28T04:02:15.929Z,49.95
2022-10-28T04:03:15.654Z,45.92
2022-10-28T04:04:15.639Z,61.07
2022-10-28T04:05:15.637Z,56.24
2022-10-28T04:06:15.655Z,51.24
2022-10-28T04:07:15.627Z,57.20
2022-10-28T04:08:15.607Z,66.87
2022-10-28T04:09:15.597Z,55.27
2022-10-28T04:10:15.591Z,58.81
2022-10-28T04:11:15.767Z,61.55
2022-10-28T04:12:15.588Z,60.75
2022-10-28T04:13:15.561Z,56.40
2022-10-28T04:14:15.557Z,49.63
2022-10-28T04:15:15.559Z,46.57
2022-10-28T04:16:15.580Z,57.52
2022-10-28T04:17:15.537Z,58.33
2022-10-28T04:18:15.539Z,56.56
2022-10-28T04:19:15.517Z,54.30
2022-10-28T04:20:15.514Z,55.59
2022-10-28T04:21:15.542Z,60.26
2022-10-28T04:22:15.526Z,56.24
2022-10-28T04:23:15.488Z,56.56
2022-10-28T04:24:15.480Z,58.01
2022-10-28T04:26:16.493Z,65.58
2022-10-28T04:27:15.460Z,60.59
2022-10-28T04:28:15.448Z,57.85
2022-10-28T04:29:15.443Z,63.16
2022-10-28T04:30:15.435Z,55.11
2022-10-28T04:31:15.424Z,58.01
2022-10-28T04:32:15.439Z,56.72
2022-10-28T04:33:15.406Z,56.72
2022-10-28T04:34:15.401Z,60.59
2022-10-28T04:35:15.415Z,52.05
2022-10-28T04:36:15.381Z,60.42
2022-10-28T04:37:20.377Z,59.46
2022-10-28T04:38:17.396Z,64.45
2022-10-28T04:39:15.357Z,64.78
2022-10-28T04:40:15.351Z,60.59
2022-10-28T04:41:15.348Z,64.61
2022-10-28T04:42:15.356Z,58.65
2022-10-28T04:43:15.327Z,63.49
2022-10-28T04:44:15.310Z,60.75
2022-10-28T04:45:15.301Z,64.45
2022-10-28T04:46:15.309Z,56.24
2022-10-28T04:47:15.312Z,58.33
2022-10-28T04:48:15.281Z,59.62
2022-10-28T04:49:15.262Z,58.97
2022-10-28T04:50:15.260Z,58.81
2022-10-28T04:51:15.282Z,63.33
2022-10-28T04:52:15.962Z,63.49
2022-10-28T04:53:15.237Z,54.14
2022-10-28T04:54:15.230Z,61.55
2022-10-28T04:55:15.214Z,63.16
2022-10-28T04:56:15.245Z,67.51
2022-10-28T04:57:15.195Z,59.14
2022-10-28T04:58:15.193Z,58.33
2022-10-28T04:59:15.183Z,55.27
2022-10-28T05:00:15.179Z,66.55
2022-10-28T05:01:15.301Z,63.81
2022-10-28T05:02:15.240Z,60.26
2022-10-28T05:03:15.170Z,55.75
2022-10-28T05:04:16.140Z,63.65
2022-10-28T05:06:15.165Z,66.06
2022-10-28T05:07:17.607Z,62.04
2022-10-28T05:08:15.106Z,59.14
2022-10-28T05:09:15.110Z,60.75
2022-10-28T05:10:15.086Z,58.81
2022-10-28T05:11:15.112Z,58.97
2022-10-28T05:12:15.072Z,59.30
2022-10-28T05:13:15.063Z,62.20
2022-10-28T05:14:15.067Z,65.58
2022-10-28T05:15:15.049Z,61.23
2022-10-28T05:16:15.046Z,58.17
2022-10-28T05:17:15.060Z,61.23
2022-10-28T05:18:15.023Z,66.06
2022-10-28T05:19:15.013Z,58.81
2022-10-28T05:20:15.011Z,62.68
2022-10-28T05:21:15.039Z,61.55
2022-10-28T05:22:14.999Z,54.62
2022-10-28T05:23:14.985Z,57.69
2022-10-28T05:24:14.969Z,58.49
2022-10-28T05:25:14.964Z,54.79
2022-10-28T05:26:14.954Z,63.97
2022-10-28T05:27:14.982Z,59.62
2022-10-28T05:28:14.942Z,54.95
2022-10-28T05:29:14.927Z,56.07
2022-10-28T05:30:14.942Z,60.26
2022-10-28T05:31:14.911Z,64.78
2022-10-28T05:32:14.932Z,57.36
2022-10-28T05:33:14.891Z,58.65
2022-10-28T05:34:15.889Z,63.33
2022-10-28T05:35:14.886Z,54.46
2022-10-28T05:36:14.872Z,57.69
2022-10-28T05:37:14.891Z,59.78
2022-10-28T05:38:14.851Z,55.43
2022-10-28T05:39:14.842Z,63.81
2022-10-28T05:40:14.841Z,59.30
2022-10-28T05:41:14.825Z,61.23
2022-10-28T05:42:14.845Z,66.71
2022-10-28T05:43:14.805Z,60.10
2022-10-28T05:44:14.800Z,60.59
2022-10-28T05:45:14.895Z,57.52
2022-10-28T05:46:14.785Z,62.36
2022-10-28T05:47:14.812Z,64.29
2022-10-28T05:48:14.775Z,58.33
2022-10-28T05:49:14.850Z,56.56
2022-10-28T05:50:15.022Z,63.00
2022-10-28T05:51:14.961Z,60.42
2022-10-28T05:52:14.758Z,64.94
2022-10-28T05:53:14.723Z,62.36
2022-10-28T05:54:14.718Z,64.13
2022-10-28T05:55:14.711Z,62.36
2022-10-28T05:56:14.697Z,57.69
2022-10-28T05:57:14.715Z,60.10
2022-10-28T05:58:14.678Z,60.42
2022-10-28T05:59:14.680Z,62.68
2022-10-28T06:00:14.663Z,56.72
2022-10-28T06:01:14.687Z,53.33
2022-10-28T06:02:14.671Z,54.79
2022-10-28T06:03:14.642Z,59.78
2022-10-28T06:04:14.692Z,60.91
2022-10-28T06:05:14.631Z,59.46
2022-10-28T06:06:14.618Z,57.69
2022-10-28T06:07:14.637Z,55.59
2022-10-28T06:08:14.593Z,58.33
2022-10-28T06:09:14.593Z,53.50
2022-10-28T06:10:14.570Z,60.91
2022-10-28T06:11:13.036Z,56.72
2022-10-28T06:12:13.055Z,62.04
2022-10-28T06:13:13.018Z,58.01
2022-10-28T06:14:13.012Z,60.59
2022-10-28T06:15:13.007Z,58.65
2022-10-28T06:16:12.996Z,53.17
2022-10-28T06:17:13.024Z,53.50
2022-10-28T06:18:16.665Z,63.81
2022-10-28T06:19:14.967Z,56.56
2022-10-28T06:20:12.967Z,66.55
2022-10-28T06:21:12.965Z,65.10
2022-10-28T06:22:12.972Z,58.49
2022-10-28T06:23:12.948Z,61.23
2022-10-28T06:24:12.943Z,60.59
2022-10-28T06:25:12.942Z,63.81
2022-10-28T06:26:12.914Z,55.75
2022-10-28T06:27:12.943Z,56.40
2022-10-28T06:28:12.893Z,65.58
2022-10-28T06:29:13.896Z,59.14
2022-10-28T06:30:12.880Z,54.14
2022-10-28T06:31:12.904Z,59.30
2022-10-28T06:32:12.906Z,59.14
2022-10-28T06:33:12.861Z,63.81
2022-10-28T06:34:12.851Z,61.07
2022-10-28T06:35:12.854Z,53.17
2022-10-28T06:36:12.869Z,54.95
2022-10-28T06:37:12.864Z,52.05
2022-10-28T06:38:12.820Z,48.34
2022-10-28T06:39:12.873Z,63.33
2022-10-28T06:40:12.809Z,59.30
2022-10-28T06:41:12.794Z,52.05
2022-10-28T06:42:13.882Z,62.20
2022-10-28T06:43:12.784Z,55.43
2022-10-28T06:44:12.778Z,58.65
2022-10-28T06:45:12.776Z,53.82
2022-10-28T06:46:12.774Z,56.56
2022-10-28T06:47:14.301Z,58.33
2022-10-28T06:48:14.264Z,52.85
2022-10-28T06:49:14.254Z,55.59
2022-10-28T06:50:14.251Z,62.36
2022-10-28T06:51:14.278Z,53.98
2022-10-28T06:52:14.229Z,61.55
2022-10-28T06:53:14.232Z,57.20
2022-10-28T06:54:14.223Z,57.69
2022-10-28T06:55:14.208Z,58.17
2022-10-28T06:56:14.267Z,58.01
2022-10-28T06:57:14.206Z,70.58
2022-10-28T06:58:14.192Z,61.87
2022-10-28T06:59:14.186Z,61.55
2022-10-28T07:00:14.177Z,64.45
2022-10-28T07:01:14.196Z,61.71
2022-10-28T07:02:14.281Z,60.26
2022-10-28T07:03:14.144Z,58.49
2022-10-28T07:04:14.138Z,64.94
2022-10-28T07:05:14.131Z,59.62
2022-10-28T07:07:14.143Z,59.30
2022-10-28T07:08:14.109Z,53.98
2022-10-28T07:09:14.105Z,57.69
2022-10-28T07:10:14.088Z,57.36
2022-10-28T07:11:14.083Z,56.72
2022-10-28T07:12:14.182Z,64.78
2022-10-28T07:13:14.062Z,63.00
2022-10-28T07:14:14.056Z,62.84
2022-10-28T07:15:14.058Z,60.10
2022-10-28T07:16:14.035Z,63.00
2022-10-28T07:17:14.071Z,55.59
2022-10-28T07:18:14.025Z,55.75
2022-10-28T07:19:14.027Z,56.56
2022-10-28T07:20:13.996Z,61.87
2022-10-28T07:21:14.997Z,55.43
2022-10-28T07:22:14.037Z,68.00
2022-10-28T07:23:13.990Z,58.81
2022-10-28T07:24:14.061Z,56.24
2022-10-28T07:25:13.968Z,59.46
2022-10-28T07:26:13.983Z,61.23
2022-10-28T07:27:13.985Z,59.14
2022-10-28T07:28:13.954Z,62.68
2022-10-28T07:29:13.941Z,60.26
2022-10-28T07:30:13.933Z,69.77
2022-10-28T07:31:13.928Z,60.75
2022-10-28T07:32:13.951Z,58.17
2022-10-28T07:33:13.909Z,60.91
2022-10-28T07:34:13.903Z,55.59
2022-10-28T07:35:13.909Z,58.17
2022-10-28T07:36:13.887Z,55.59
2022-10-28T07:37:13.908Z,57.36
2022-10-28T07:38:13.871Z,59.62
2022-10-28T07:39:13.857Z,64.13
2022-10-28T07:40:13.849Z,60.26
2022-10-28T07:41:13.850Z,55.11
2022-10-28T07:42:13.870Z,59.94
2022-10-28T07:43:13.830Z,63.81
2022-10-28T07:44:13.825Z,56.88
2022-10-28T07:45:13.821Z,52.37
2022-10-28T07:46:13.805Z,55.59
2022-10-28T07:47:13.823Z,65.58
2022-10-28T07:48:13.789Z,56.56
2022-10-28T07:49:13.813Z,60.42
2022-10-28T07:50:13.774Z,60.91
2022-10-28T07:51:13.784Z,56.72
2022-10-28T07:52:13.790Z,60.59
2022-10-28T07:54:13.742Z,53.82
2022-10-28T07:55:13.732Z,62.52
2022-10-28T07:56:13.749Z,57.20
2022-10-28T07:57:13.742Z,50.92
2022-10-28T07:58:13.707Z,53.66
2022-10-28T07:59:13.702Z,55.59
2022-10-28T08:00:13.708Z,54.95
2022-10-28T08:01:13.778Z,54.95
2022-10-28T08:02:13.765Z,50.43
2022-10-28T08:03:13.661Z,51.08
2022-10-28T08:04:13.652Z,54.79
2022-10-28T08:05:13.641Z,55.59
2022-10-28T08:06:13.633Z,60.26
2022-10-28T08:07:13.649Z,56.88
2022-10-28T08:08:13.604Z,55.27
2022-10-28T08:09:13.595Z,65.26
2022-10-28T08:10:13.583Z,56.40
2022-10-28T08:11:13.584Z,58.17
2022-10-28T08:12:13.597Z,64.78
2022-10-28T08:13:13.555Z,56.88
2022-10-28T08:14:13.546Z,50.76
2022-10-28T08:15:13.539Z,53.66
2022-10-28T08:16:13.531Z,64.94
2022-10-28T08:17:13.544Z,59.46
2022-10-28T08:18:13.514Z,54.46
2022-10-28T08:19:13.496Z,62.36
2022-10-28T08:20:13.493Z,62.04
2022-10-28T08:21:13.492Z,58.65
2022-10-28T08:22:13.505Z,65.42
2022-10-28T08:23:13.455Z,56.72
2022-10-28T08:24:13.458Z,61.71
2022-10-28T08:25:13.448Z,62.68
2022-10-28T08:26:13.439Z,64.29
2022-10-28T08:27:13.428Z,61.71
2022-10-28T08:28:13.444Z,58.97
2022-10-28T08:29:13.421Z,57.69
2022-10-28T08:30:13.407Z,60.59
2022-10-28T08:31:13.410Z,63.33
2022-10-28T08:32:13.400Z,58.65
2022-10-28T08:33:13.407Z,58.65
2022-10-28T08:34:13.425Z,58.65
2022-10-28T08:35:13.363Z,65.26
2022-10-28T08:36:13.359Z,61.71
2022-10-28T08:37:13.370Z,52.85
2022-10-28T08:38:13.372Z,53.98
2022-10-28T08:39:13.333Z,53.98
2022-10-28T08:40:13.329Z,59.46
2022-10-28T08:41:13.323Z,56.24
2022-10-28T08:42:13.327Z,54.46
2022-10-28T08:43:13.360Z,57.69
2022-10-28T08:44:13.293Z,63.33
2022-10-28T08:45:15.799Z,59.14
2022-10-28T08:46:14.276Z,55.59
2022-10-28T08:47:13.284Z,53.82
2022-10-28T08:48:13.297Z,60.91
2022-10-28T08:49:13.267Z,61.07
2022-10-28T08:50:13.251Z,56.40
2022-10-28T08:51:13.250Z,51.72
2022-10-28T08:52:13.241Z,61.23
2022-10-28T08:53:13.256Z,60.26
2022-10-28T08:54:13.226Z,57.04
2022-10-28T08:55:13.219Z,57.85
2022-10-28T08:56:13.207Z,54.30
2022-10-28T08:57:17.786Z,66.71
2022-10-28T08:58:15.239Z,59.78
2022-10-28T08:59:13.189Z,60.42
2022-10-28T09:00:13.179Z,56.07
2022-10-28T09:01:13.264Z,52.85
2022-10-28T09:02:13.178Z,55.91
2022-10-28T09:03:13.184Z,55.27
2022-10-28T09:04:13.160Z,59.30
2022-10-28T09:05:13.140Z,62.20
2022-10-28T09:06:13.140Z,56.56
2022-10-28T09:07:13.128Z,52.85
2022-10-28T09:08:13.149Z,58.33
2022-10-28T09:09:13.117Z,62.20
2022-10-28T09:10:13.114Z,60.42
2022-10-28T09:11:13.105Z,49.95
2022-10-28T09:12:13.092Z,53.17
2022-10-28T09:13:13.112Z,58.33
2022-10-28T09:14:13.091Z,55.75
2022-10-28T09:15:13.069Z,51.56
2022-10-28T09:16:15.276Z,53.17
2022-10-28T09:17:13.054Z,60.91
2022-10-28T09:18:13.078Z,58.33
2022-10-28T09:19:13.039Z,50.11
2022-10-28T09:20:13.035Z,59.46
2022-10-28T09:21:13.026Z,61.07
2022-10-28T09:22:15.246Z,57.20
2022-10-28T09:23:13.049Z,61.39
2022-10-28T09:24:13.011Z,64.78
2022-10-28T09:25:13.003Z,62.68
2022-10-28T09:26:13.001Z,57.85
2022-10-28T09:27:12.991Z,55.91
2022-10-28T09:28:13.015Z,58.01
2022-10-28T09:29:12.993Z,60.91
2022-10-28T09:30:12.992Z,56.07
2022-10-28T09:31:12.979Z,53.17
2022-10-28T09:32:12.974Z,47.05
2022-10-28T09:33:13.041Z,56.24
2022-10-28T09:34:13.100Z,63.00
2022-10-28T09:35:13.420Z,59.62
2022-10-28T09:36:16.373Z,64.78
2022-10-28T09:37:28.384Z,57.04
2022-10-28T09:42:37.465Z,54.79
2022-10-28T09:43:37.434Z,59.46
2022-10-28T09:44:37.407Z,62.20
2022-10-28T09:45:37.388Z,61.87
2022-10-28T09:46:37.457Z,63.00
2022-10-28T09:47:37.369Z,62.36
2022-10-28T09:48:37.401Z,56.72
2022-10-28T09:49:38.511Z,53.01
2022-10-28T09:50:38.501Z,55.43
2022-10-28T09:51:38.489Z,56.40
2022-10-28T09:52:38.491Z,60.42
2022-10-28T09:53:38.517Z,62.36
2022-10-28T09:54:38.474Z,54.62
2022-10-28T09:55:38.463Z,48.66
2022-10-28T09:56:38.469Z,61.23
2022-10-28T09:57:38.452Z,63.65
2022-10-28T09:58:38.472Z,60.91
2022-10-28T09:59:38.435Z,57.52
2022-10-28T10:00:38.429Z,54.79
2022-10-28T10:01:38.532Z,49.63
2022-10-28T10:02:38.517Z,55.43
2022-10-28T10:03:38.439Z,60.26
2022-10-28T10:04:38.408Z,53.01
2022-10-28T10:05:38.397Z,58.65
2022-10-28T10:06:38.390Z,55.27
2022-10-28T10:07:38.389Z,60.91
2022-10-28T10:08:38.411Z,58.33
2022-10-28T10:09:38.367Z,57.36
2022-10-28T10:10:38.369Z,60.75
2022-10-28T10:11:38.365Z,56.24
2022-10-28T10:12:38.348Z,60.42
2022-10-28T10:13:38.376Z,62.52
2022-10-28T10:14:38.353Z,62.04
2022-10-28T10:15:38.333Z,64.13
2022-10-28T10:16:38.320Z,62.36
2022-10-28T10:17:38.326Z,59.46
2022-10-28T10:18:38.337Z,55.75
2022-10-28T10:19:38.308Z,51.88
2022-10-28T10:20:38.309Z,63.16
2022-10-28T10:21:38.286Z,58.97
2022-10-28T10:22:38.282Z,50.27
2022-10-28T10:24:38.267Z,59.78
2022-10-28T10:25:38.263Z,65.26
2022-10-28T10:26:38.263Z,60.42
2022-10-28T10:27:38.250Z,58.65
2022-10-28T10:28:38.276Z,58.81
2022-10-28T10:29:38.241Z,62.04
2022-10-28T10:30:38.236Z,58.97
2022-10-28T10:31:38.228Z,63.33
2022-10-28T10:32:38.212Z,62.36
2022-10-28T10:33:38.233Z,51.88
2022-10-28T10:34:38.203Z,60.75
2022-10-28T10:35:38.199Z,54.46
2022-10-28T10:36:38.199Z,58.81
2022-10-28T10:37:38.211Z,64.29
2022-10-28T10:38:38.196Z,60.75
2022-10-28T10:39:39.177Z,56.07
2022-10-28T10:40:38.161Z,54.30
2022-10-28T10:41:38.157Z,60.91
2022-10-28T10:42:46.509Z,61.87
2022-10-28T10:43:40.223Z,58.33
2022-10-28T10:44:38.144Z,58.33
2022-10-28T10:45:38.136Z,62.84
2022-10-28T10:46:38.127Z,64.29
2022-10-28T10:47:38.123Z,62.68
2022-10-28T10:48:38.136Z,62.68
2022-10-28T10:49:38.099Z,60.59
2022-10-28T10:50:38.101Z,59.94
2022-10-28T10:51:40.151Z,51.56
2022-10-28T10:52:38.088Z,61.39
2022-10-28T10:53:38.107Z,61.55
2022-10-28T10:54:38.074Z,54.14
2022-10-28T10:55:38.061Z,54.79
2022-10-28T10:56:38.047Z,53.98
2022-10-28T10:57:38.045Z,55.91
2022-10-28T10:58:38.072Z,55.59
2022-10-28T10:59:38.038Z,62.36
2022-10-28T11:00:38.032Z,60.26
2022-10-28T11:01:38.167Z,55.91
2022-10-28T11:02:38.156Z,59.78
2022-10-28T11:03:38.037Z,62.36
2022-10-28T11:04:37.993Z,56.88
2022-10-28T11:05:38.508Z,53.82
2022-10-28T11:06:38.987Z,56.56
2022-10-28T11:07:37.975Z,54.62
2022-10-28T11:08:37.995Z,60.75
2022-10-28T11:09:37.957Z,60.42
2022-10-28T11:10:37.953Z,54.30
2022-10-28T11:11:37.938Z,51.72
2022-10-28T11:12:37.941Z,58.97
2022-10-28T11:13:40.063Z,63.97
2022-10-28T11:14:37.925Z,63.16
2022-10-28T11:15:37.916Z,64.45
2022-10-28T11:16:37.911Z,53.50
2022-10-28T11:17:37.904Z,50.76
2022-10-28T11:18:37.929Z,62.68
2022-10-28T11:19:37.887Z,58.81
2022-10-28T11:20:37.887Z,53.17
2022-10-28T11:21:37.874Z,55.59
2022-10-28T11:22:37.912Z,58.65
2022-10-28T11:23:37.886Z,61.87
2022-10-28T11:24:37.838Z,50.76
2022-10-28T11:25:37.843Z,61.23
2022-10-28T11:26:37.830Z,57.85
2022-10-28T11:27:37.816Z,52.53
2022-10-28T11:28:37.858Z,65.90
2022-10-28T11:29:37.807Z,63.16
2022-10-28T11:30:37.811Z,55.27
2022-10-28T11:31:37.789Z,49.47
2022-10-28T11:32:45.181Z,64.45
2022-10-28T11:33:39.134Z,64.13
2022-10-28T11:34:37.769Z,57.20
2022-10-28T11:35:37.759Z,56.72
2022-10-28T11:36:37.752Z,56.07
2022-10-28T11:37:37.746Z,58.81
2022-10-28T11:38:38.469Z,65.42
2022-10-28T11:39:37.732Z,62.52
2022-10-28T11:40:37.712Z,61.07
2022-10-28T11:41:38.722Z,59.14
2022-10-28T11:42:37.710Z,56.72
2022-10-28T11:43:37.734Z,60.75
2022-10-28T11:44:37.696Z,58.01
2022-10-28T11:45:37.680Z,65.58
2022-10-28T11:46:37.676Z,64.45
2022-10-28T11:47:37.674Z,61.87
2022-10-28T11:48:37.694Z,57.36
2022-10-28T11:49:37.661Z,63.16
2022-10-28T11:50:37.661Z,61.55
2022-10-28T11:51:37.644Z,56.56
2022-10-28T11:52:42.617Z,60.42
2022-10-28T11:53:39.673Z,60.75
2022-10-28T11:54:37.618Z,61.07
2022-10-28T11:55:37.610Z,58.97
2022-10-28T11:56:37.601Z,62.84
2022-10-28T11:57:37.599Z,58.65
2022-10-28T11:58:37.617Z,59.30
2022-10-28T11:59:37.580Z,60.10
2022-10-28T12:00:37.602Z,54.62
2022-10-28T12:01:37.643Z,62.36
2022-10-28T12:02:37.671Z,61.39
2022-10-28T12:03:37.578Z,59.14
2022-10-28T12:04:37.568Z,63.49
2022-10-28T12:05:37.558Z,63.49
2022-10-28T12:06:37.530Z,59.30
2022-10-28T12:07:37.518Z,63.00
2022-10-28T12:08:37.555Z,56.88
2022-10-28T12:09:37.509Z,53.33
2022-10-28T12:10:37.496Z,65.74
2022-10-28T12:11:37.490Z,61.23
2022-10-28T12:12:39.734Z,55.59
2022-10-28T12:13:37.518Z,57.85
2022-10-28T12:14:37.461Z,62.68
2022-10-28T12:15:37.453Z,61.71
2022-10-28T12:16:37.452Z,62.20
2022-10-28T12:17:37.442Z,61.23
2022-10-28T12:18:37.467Z,63.97
2022-10-28T12:19:37.425Z,62.20
2022-10-28T12:20:37.422Z,60.59
2022-10-28T12:21:37.413Z,59.94
2022-10-28T12:22:37.396Z,63.49
2022-10-28T12:23:37.395Z,61.55
2022-10-28T12:24:37.513Z,64.13
2022-10-28T12:25:37.397Z,63.00
2022-10-28T12:26:37.380Z,60.10
2022-10-28T12:27:37.366Z,51.56
2022-10-28T12:28:37.363Z,59.46
2022-10-28T12:29:37.391Z,60.59
2022-10-28T12:30:37.348Z,58.81
2022-10-28T12:31:37.351Z,63.16
2022-10-28T12:32:37.333Z,59.30
2022-10-28T12:33:37.323Z,50.60
2022-10-28T12:35:38.303Z,58.17
2022-10-28T12:36:37.303Z,59.78
2022-10-28T12:37:37.287Z,61.39
2022-10-28T12:38:37.278Z,65.26
2022-10-28T12:39:37.301Z,57.52
2022-10-28T12:40:37.266Z,61.39
2022-10-28T12:41:37.297Z,57.85
2022-10-28T12:42:37.253Z,62.20
2022-10-28T12:43:37.261Z,60.26
2022-10-28T12:44:37.268Z,50.76
2022-10-28T12:45:37.226Z,52.37
2022-10-28T12:46:37.255Z,59.46
2022-10-28T12:47:40.508Z,63.33
2022-10-28T12:48:38.205Z,65.58
2022-10-28T12:49:37.229Z,58.17
2022-10-28T12:50:37.197Z,56.88
2022-10-28T12:51:37.186Z,56.88
2022-10-28T12:52:37.171Z,60.26
2022-10-28T12:53:37.195Z,59.46
2022-10-28T12:54:37.196Z,57.20
2022-10-28T12:55:37.162Z,60.26
2022-10-28T12:56:37.220Z,57.85
2022-10-28T12:57:37.140Z,54.14
2022-10-28T12:58:37.134Z,57.85
2022-10-28T12:59:37.154Z,62.36
2022-10-28T13:00:37.141Z,62.84
2022-10-28T13:01:37.206Z,60.75
2022-10-28T13:02:37.174Z,54.14